Jaipur Airport
VIJP : now visible

Aeroporto :











RITROVATECI SU...

 
LOGIN :

Iscrizione | Disclaimer

   EN    FR    IT 

 









Sommario :    VFR   VFR Marginale   IFR   IFR Intensivo   IFR Molto Intensivo
Visibilità : 
Base nubi : 
>= 8 km
>= 3000ft
5 / 8 km
1000 / 3000 ft
1500m / 5 km
500 / 1000 ft
800 / 1500m
200 / 500 ft
< 800m
< 200 ft
Simboli :   Temporali  Nebbia  Neve Forte  Precipitazioni Forti  Vento > 20 kt






- Altitudine del aeroporto : 1263 ft
- Codice IATA : JAI


VIJP - Jaipur

ULTIMO METAR :
  • 011100Z 30008KT 8000 NSC 33/03 Q1009 NOSIG

METARs OBSOLETI :
  • 011000Z 30009KT 8000 NSC 33/02 Q1010 NOSIG
  • 010900Z 28010KT 8000 FEW100 33/03 Q1011 NOSIG

TAF TAF VIJP
Valido dal 01 a 12 ore il 01 a 21 ore UTC


011100Z 0112/0121 28008KT 5000 HZ NSC
BECMG 0113/0115 32008KT 3000 HZ



MetMap, La meteo Aeronautica in un colpo d'occhio ! - Copyright ORBIFLY Dicembre 2007 - Disclaimer

ORBIFLY MET'MAP TEAM :

Programmazione e sviluppo : Alexandra Zaïnal
Concezione : Baudouin d'Aumeries
Aiuto per la programmazione : Marc-Olivier Méhu
Supporto tecnico e logistico : Manuel Goepfert
Aiuto per la traduzione : Arnaldo La Scala

Contatto : metmap@orbifly.com




FONTI E CREDITI :

   NOAA       Earth
Advisory